sensor_id;sensor_type;location;lat;lon;timestamp;temperature;humidity
831;DHT22;397;50.564;7.272;2023-06-14T00:00:44;17.10;99.90
831;DHT22;397;50.564;7.272;2023-06-14T00:03:12;17.20;99.90
831;DHT22;397;50.564;7.272;2023-06-14T00:05:41;17.20;99.90
831;DHT22;397;50.564;7.272;2023-06-14T00:08:10;16.90;99.90
831;DHT22;397;50.564;7.272;2023-06-14T00:10:37;17.00;99.90
831;DHT22;397;50.564;7.272;2023-06-14T00:13:10;16.90;99.90
831;DHT22;397;50.564;7.272;2023-06-14T00:15:38;17.00;99.90
831;DHT22;397;50.564;7.272;2023-06-14T00:18:06;17.00;99.90
831;DHT22;397;50.564;7.272;2023-06-14T00:20:33;17.20;99.90
831;DHT22;397;50.564;7.272;2023-06-14T00:23:01;17.10;99.90
831;DHT22;397;50.564;7.272;2023-06-14T00:25:28;17.00;99.90
831;DHT22;397;50.564;7.272;2023-06-14T00:27:57;17.00;99.90
831;DHT22;397;50.564;7.272;2023-06-14T00:30:25;17.00;99.90
831;DHT22;397;50.564;7.272;2023-06-14T00:32:54;16.90;99.90
831;DHT22;397;50.564;7.272;2023-06-14T00:35:22;16.90;99.90
831;DHT22;397;50.564;7.272;2023-06-14T00:37:49;16.90;99.90
831;DHT22;397;50.564;7.272;2023-06-14T00:40:17;16.80;99.90
831;DHT22;397;50.564;7.272;2023-06-14T00:42:44;16.80;99.90
831;DHT22;397;50.564;7.272;2023-06-14T00:45:12;16.80;99.90
831;DHT22;397;50.564;7.272;2023-06-14T00:47:41;16.80;99.90
831;DHT22;397;50.564;7.272;2023-06-14T00:50:10;16.90;99.90
831;DHT22;397;50.564;7.272;2023-06-14T00:52:39;16.90;99.90
831;DHT22;397;50.564;7.272;2023-06-14T00:55:07;16.90;99.90
831;DHT22;397;50.564;7.272;2023-06-14T00:57:35;16.70;99.90
831;DHT22;397;50.564;7.272;2023-06-14T01:00:04;16.60;99.90
831;DHT22;397;50.564;7.272;2023-06-14T01:02:33;16.60;99.90
831;DHT22;397;50.564;7.272;2023-06-14T01:05:01;16.70;99.90
831;DHT22;397;50.564;7.272;2023-06-14T01:15:43;16.60;99.90
831;DHT22;397;50.564;7.272;2023-06-14T01:18:11;16.60;99.90
831;DHT22;397;50.564;7.272;2023-06-14T01:20:40;16.60;99.90
831;DHT22;397;50.564;7.272;2023-06-14T01:23:07;16.50;99.90
831;DHT22;397;50.564;7.272;2023-06-14T01:25:35;16.30;99.90
831;DHT22;397;50.564;7.272;2023-06-14T01:28:06;16.40;99.90
831;DHT22;397;50.564;7.272;2023-06-14T01:30:41;16.30;99.90
831;DHT22;397;50.564;7.272;2023-06-14T01:33:15;16.30;99.90
831;DHT22;397;50.564;7.272;2023-06-14T01:35:45;16.40;99.90
831;DHT22;397;50.564;7.272;2023-06-14T01:38:14;16.40;99.90
831;DHT22;397;50.564;7.272;2023-06-14T01:40:43;16.50;99.90
831;DHT22;397;50.564;7.272;2023-06-14T01:43:13;16.50;99.90
831;DHT22;397;50.564;7.272;2023-06-14T01:45:42;16.40;99.90
831;DHT22;397;50.564;7.272;2023-06-14T01:48:09;16.20;99.90
831;DHT22;397;50.564;7.272;2023-06-14T01:50:37;16.20;99.90
831;DHT22;397;50.564;7.272;2023-06-14T01:53:09;16.20;99.90
831;DHT22;397;50.564;7.272;2023-06-14T01:55:37;16.30;99.90
831;DHT22;397;50.564;7.272;2023-06-14T01:58:06;16.10;99.90
831;DHT22;397;50.564;7.272;2023-06-14T02:00:34;16.10;99.90
831;DHT22;397;50.564;7.272;2023-06-14T02:03:02;16.00;99.90
831;DHT22;397;50.564;7.272;2023-06-14T02:05:31;16.10;99.90
831;DHT22;397;50.564;7.272;2023-06-14T02:08:01;16.10;99.90
831;DHT22;397;50.564;7.272;2023-06-14T02:10:28;16.10;99.90
831;DHT22;397;50.564;7.272;2023-06-14T02:12:56;16.10;99.90
831;DHT22;397;50.564;7.272;2023-06-14T02:15:23;16.10;99.90
831;DHT22;397;50.564;7.272;2023-06-14T02:17:53;16.10;99.90
831;DHT22;397;50.564;7.272;2023-06-14T02:20:20;16.00;99.90
831;DHT22;397;50.564;7.272;2023-06-14T02:22:48;16.00;99.90
831;DHT22;397;50.564;7.272;2023-06-14T02:25:15;16.00;99.90
831;DHT22;397;50.564;7.272;2023-06-14T02:27:43;15.90;99.90
831;DHT22;397;50.564;7.272;2023-06-14T02:30:11;15.90;99.90
831;DHT22;397;50.564;7.272;2023-06-14T02:32:38;15.80;99.90
831;DHT22;397;50.564;7.272;2023-06-14T02:35:07;15.90;99.90
831;DHT22;397;50.564;7.272;2023-06-14T02:37:35;15.90;99.90
831;DHT22;397;50.564;7.272;2023-06-14T02:40:02;15.70;99.90
831;DHT22;397;50.564;7.272;2023-06-14T02:42:30;15.60;99.90
831;DHT22;397;50.564;7.272;2023-06-14T02:44:58;15.60;99.90
831;DHT22;397;50.564;7.272;2023-06-14T02:47:25;15.70;99.90
831;DHT22;397;50.564;7.272;2023-06-14T02:49:53;15.60;99.90
831;DHT22;397;50.564;7.272;2023-06-14T02:52:20;15.60;99.90
831;DHT22;397;50.564;7.272;2023-06-14T02:54:48;15.60;99.90
831;DHT22;397;50.564;7.272;2023-06-14T02:57:15;15.70;99.90
831;DHT22;397;50.564;7.272;2023-06-14T02:59:43;15.60;99.90
831;DHT22;397;50.564;7.272;2023-06-14T03:02:10;15.50;99.90
831;DHT22;397;50.564;7.272;2023-06-14T03:04:38;15.50;99.90
831;DHT22;397;50.564;7.272;2023-06-14T03:07:06;15.40;99.90
831;DHT22;397;50.564;7.272;2023-06-14T03:09:36;15.40;99.90
831;DHT22;397;50.564;7.272;2023-06-14T03:12:04;15.30;99.90
831;DHT22;397;50.564;7.272;2023-06-14T03:14:34;15.30;99.90
831;DHT22;397;50.564;7.272;2023-06-14T03:17:02;15.20;99.90
831;DHT22;397;50.564;7.272;2023-06-14T03:19:31;15.30;99.90
831;DHT22;397;50.564;7.272;2023-06-14T03:21:58;15.30;99.90
831;DHT22;397;50.564;7.272;2023-06-14T03:24:26;15.40;99.90
831;DHT22;397;50.564;7.272;2023-06-14T03:26:58;15.20;99.90
831;DHT22;397;50.564;7.272;2023-06-14T03:29:25;15.10;99.90
831;DHT22;397;50.564;7.272;2023-06-14T03:32:02;14.90;99.90
831;DHT22;397;50.564;7.272;2023-06-14T03:34:26;15.00;99.90
831;DHT22;397;50.564;7.272;2023-06-14T03:36:54;15.10;99.90
831;DHT22;397;50.564;7.272;2023-06-14T03:39:22;14.90;99.90
831;DHT22;397;50.564;7.272;2023-06-14T03:41:49;15.10;99.90
831;DHT22;397;50.564;7.272;2023-06-14T03:44:18;15.10;99.90
831;DHT22;397;50.564;7.272;2023-06-14T03:46:46;15.20;99.90
831;DHT22;397;50.564;7.272;2023-06-14T03:49:14;15.10;99.90
831;DHT22;397;50.564;7.272;2023-06-14T03:51:43;15.10;99.90
831;DHT22;397;50.564;7.272;2023-06-14T03:54:11;15.20;99.90
831;DHT22;397;50.564;7.272;2023-06-14T03:56:38;15.30;99.90
831;DHT22;397;50.564;7.272;2023-06-14T03:59:06;15.30;99.90
831;DHT22;397;50.564;7.272;2023-06-14T04:01:33;15.60;99.90
831;DHT22;397;50.564;7.272;2023-06-14T04:04:01;16.50;99.90
831;DHT22;397;50.564;7.272;2023-06-14T04:06:28;17.40;99.90
831;DHT22;397;50.564;7.272;2023-06-14T04:08:58;18.10;99.90
831;DHT22;397;50.564;7.272;2023-06-14T04:11:28;18.80;99.90
831;DHT22;397;50.564;7.272;2023-06-14T04:13:55;19.40;99.90
831;DHT22;397;50.564;7.272;2023-06-14T04:16:23;19.80;99.90
831;DHT22;397;50.564;7.272;2023-06-14T04:18:51;20.10;99.90
831;DHT22;397;50.564;7.272;2023-06-14T04:21:19;20.60;99.90
831;DHT22;397;50.564;7.272;2023-06-14T04:23:47;20.70;99.90
831;DHT22;397;50.564;7.272;2023-06-14T04:26:14;21.20;99.90
831;DHT22;397;50.564;7.272;2023-06-14T04:28:43;21.60;99.90
831;DHT22;397;50.564;7.272;2023-06-14T04:31:11;21.80;99.90
831;DHT22;397;50.564;7.272;2023-06-14T04:33:39;22.20;98.60
831;DHT22;397;50.564;7.272;2023-06-14T04:36:13;22.80;96.60
831;DHT22;397;50.564;7.272;2023-06-14T04:38:38;23.10;93.60
831;DHT22;397;50.564;7.272;2023-06-14T04:41:06;23.50;94.00
831;DHT22;397;50.564;7.272;2023-06-14T04:43:35;24.10;92.20
831;DHT22;397;50.564;7.272;2023-06-14T04:46:05;24.30;87.80
831;DHT22;397;50.564;7.272;2023-06-14T04:48:34;23.90;86.00
831;DHT22;397;50.564;7.272;2023-06-14T04:51:02;24.20;84.40
831;DHT22;397;50.564;7.272;2023-06-14T04:53:30;24.50;82.40
831;DHT22;397;50.564;7.272;2023-06-14T04:55:57;24.60;83.50
831;DHT22;397;50.564;7.272;2023-06-14T04:58:30;24.80;82.00
831;DHT22;397;50.564;7.272;2023-06-14T05:00:58;25.70;80.30
831;DHT22;397;50.564;7.272;2023-06-14T05:03:26;26.10;77.40
831;DHT22;397;50.564;7.272;2023-06-14T05:05:54;26.40;73.90
831;DHT22;397;50.564;7.272;2023-06-14T05:08:21;26.80;71.80
831;DHT22;397;50.564;7.272;2023-06-14T05:10:52;26.90;71.40
831;DHT22;397;50.564;7.272;2023-06-14T05:13:20;26.90;67.70
831;DHT22;397;50.564;7.272;2023-06-14T05:15:49;27.20;67.00
831;DHT22;397;50.564;7.272;2023-06-14T05:18:16;27.30;65.40
831;DHT22;397;50.564;7.272;2023-06-14T05:20:44;27.10;64.60
831;DHT22;397;50.564;7.272;2023-06-14T05:23:12;27.70;64.40
831;DHT22;397;50.564;7.272;2023-06-14T05:25:44;28.10;62.00
831;DHT22;397;50.564;7.272;2023-06-14T05:28:12;28.50;61.00
831;DHT22;397;50.564;7.272;2023-06-14T05:30:39;28.90;58.60
831;DHT22;397;50.564;7.272;2023-06-14T05:33:07;29.50;59.40
831;DHT22;397;50.564;7.272;2023-06-14T05:35:34;29.20;57.90
831;DHT22;397;50.564;7.272;2023-06-14T05:38:02;29.00;58.40
831;DHT22;397;50.564;7.272;2023-06-14T05:40:29;29.00;57.90
831;DHT22;397;50.564;7.272;2023-06-14T05:42:57;29.80;57.40
831;DHT22;397;50.564;7.272;2023-06-14T05:45:24;29.70;56.20
831;DHT22;397;50.564;7.272;2023-06-14T05:47:52;29.70;56.30
831;DHT22;397;50.564;7.272;2023-06-14T05:50:21;29.10;55.50
831;DHT22;397;50.564;7.272;2023-06-14T05:52:49;29.10;57.00
831;DHT22;397;50.564;7.272;2023-06-14T05:55:17;29.00;56.30
831;DHT22;397;50.564;7.272;2023-06-14T05:57:44;29.00;55.30
831;DHT22;397;50.564;7.272;2023-06-14T06:00:12;28.90;56.20
831;DHT22;397;50.564;7.272;2023-06-14T06:02:43;28.00;57.70
831;DHT22;397;50.564;7.272;2023-06-14T06:05:11;29.00;58.60
831;DHT22;397;50.564;7.272;2023-06-14T06:07:39;29.40;56.50
831;DHT22;397;50.564;7.272;2023-06-14T06:10:07;29.50;57.30
831;DHT22;397;50.564;7.272;2023-06-14T06:12:34;30.10;56.20
831;DHT22;397;50.564;7.272;2023-06-14T06:15:02;29.90;55.50
831;DHT22;397;50.564;7.272;2023-06-14T06:17:30;29.40;55.50
831;DHT22;397;50.564;7.272;2023-06-14T06:19:57;29.30;55.70
831;DHT22;397;50.564;7.272;2023-06-14T06:22:25;27.80;55.60
831;DHT22;397;50.564;7.272;2023-06-14T06:24:52;27.30;58.40
831;DHT22;397;50.564;7.272;2023-06-14T06:27:20;27.40;59.30
831;DHT22;397;50.564;7.272;2023-06-14T06:29:47;28.00;58.70
831;DHT22;397;50.564;7.272;2023-06-14T06:32:15;27.60;58.10
831;DHT22;397;50.564;7.272;2023-06-14T06:34:43;26.90;60.00
831;DHT22;397;50.564;7.272;2023-06-14T06:37:10;26.80;60.30
831;DHT22;397;50.564;7.272;2023-06-14T06:39:38;26.90;60.50
831;DHT22;397;50.564;7.272;2023-06-14T06:42:06;26.50;62.90
831;DHT22;397;50.564;7.272;2023-06-14T06:44:33;26.80;62.20
831;DHT22;397;50.564;7.272;2023-06-14T06:47:01;26.70;62.20
831;DHT22;397;50.564;7.272;2023-06-14T06:49:28;26.60;62.50
831;DHT22;397;50.564;7.272;2023-06-14T06:52:00;26.30;64.40
831;DHT22;397;50.564;7.272;2023-06-14T06:54:28;25.60;65.50
831;DHT22;397;50.564;7.272;2023-06-14T06:56:56;25.40;67.20
831;DHT22;397;50.564;7.272;2023-06-14T06:59:24;25.60;66.00
831;DHT22;397;50.564;7.272;2023-06-14T07:01:51;25.10;65.80
831;DHT22;397;50.564;7.272;2023-06-14T07:04:19;24.00;66.00
831;DHT22;397;50.564;7.272;2023-06-14T07:06:47;24.60;65.80
831;DHT22;397;50.564;7.272;2023-06-14T07:09:15;24.90;63.20
831;DHT22;397;50.564;7.272;2023-06-14T07:11:43;25.20;60.40
831;DHT22;397;50.564;7.272;2023-06-14T07:14:11;24.70;58.10
831;DHT22;397;50.564;7.272;2023-06-14T07:16:39;24.70;59.40
831;DHT22;397;50.564;7.272;2023-06-14T07:19:07;25.00;59.10
831;DHT22;397;50.564;7.272;2023-06-14T07:21:35;24.90;59.00
831;DHT22;397;50.564;7.272;2023-06-14T07:24:06;25.00;58.80
831;DHT22;397;50.564;7.272;2023-06-14T07:26:34;25.10;59.00
831;DHT22;397;50.564;7.272;2023-06-14T07:29:02;25.00;58.40
831;DHT22;397;50.564;7.272;2023-06-14T07:31:30;24.80;58.70
831;DHT22;397;50.564;7.272;2023-06-14T07:33:57;25.00;59.30
831;DHT22;397;50.564;7.272;2023-06-14T07:36:25;25.20;57.50
831;DHT22;397;50.564;7.272;2023-06-14T07:38:52;25.00;57.00
831;DHT22;397;50.564;7.272;2023-06-14T07:41:20;25.00;57.20
831;DHT22;397;50.564;7.272;2023-06-14T07:43:48;25.00;56.70
831;DHT22;397;50.564;7.272;2023-06-14T07:46:16;24.40;57.40
831;DHT22;397;50.564;7.272;2023-06-14T07:48:43;24.40;56.90
831;DHT22;397;50.564;7.272;2023-06-14T07:51:11;24.40;57.20
831;DHT22;397;50.564;7.272;2023-06-14T07:53:39;24.50;58.20
831;DHT22;397;50.564;7.272;2023-06-14T07:56:07;24.70;57.40
831;DHT22;397;50.564;7.272;2023-06-14T07:58:35;24.70;56.70
831;DHT22;397;50.564;7.272;2023-06-14T08:01:03;24.40;56.50
831;DHT22;397;50.564;7.272;2023-06-14T08:03:33;24.50;57.20
831;DHT22;397;50.564;7.272;2023-06-14T08:06:01;24.30;56.50
831;DHT22;397;50.564;7.272;2023-06-14T08:08:28;24.40;57.40
831;DHT22;397;50.564;7.272;2023-06-14T08:10:56;24.30;56.30
831;DHT22;397;50.564;7.272;2023-06-14T08:13:24;24.60;56.70
831;DHT22;397;50.564;7.272;2023-06-14T08:15:52;24.70;56.60
831;DHT22;397;50.564;7.272;2023-06-14T08:18:19;24.70;56.30
831;DHT22;397;50.564;7.272;2023-06-14T08:20:47;24.80;57.00
831;DHT22;397;50.564;7.272;2023-06-14T08:23:14;25.00;56.10
831;DHT22;397;50.564;7.272;2023-06-14T08:25:43;24.90;55.50
831;DHT22;397;50.564;7.272;2023-06-14T08:28:11;24.90;56.30
831;DHT22;397;50.564;7.272;2023-06-14T08:30:38;25.10;55.80
831;DHT22;397;50.564;7.272;2023-06-14T08:33:06;25.00;56.20
831;DHT22;397;50.564;7.272;2023-06-14T08:35:33;24.60;55.90
831;DHT22;397;50.564;7.272;2023-06-14T08:38:03;24.70;56.90
831;DHT22;397;50.564;7.272;2023-06-14T08:40:31;24.60;52.40
831;DHT22;397;50.564;7.272;2023-06-14T08:42:58;24.00;51.70
831;DHT22;397;50.564;7.272;2023-06-14T08:45:26;24.10;52.10
831;DHT22;397;50.564;7.272;2023-06-14T08:47:54;23.80;52.20
831;DHT22;397;50.564;7.272;2023-06-14T08:50:24;23.80;51.80
831;DHT22;397;50.564;7.272;2023-06-14T08:52:55;23.60;51.40
831;DHT22;397;50.564;7.272;2023-06-14T08:55:24;23.10;51.20
831;DHT22;397;50.564;7.272;2023-06-14T08:57:56;23.30;51.90
831;DHT22;397;50.564;7.272;2023-06-14T09:00:27;23.80;51.30
831;DHT22;397;50.564;7.272;2023-06-14T09:02:55;24.30;51.60
831;DHT22;397;50.564;7.272;2023-06-14T09:05:25;24.30;50.00
831;DHT22;397;50.564;7.272;2023-06-14T09:07:53;24.20;49.70
831;DHT22;397;50.564;7.272;2023-06-14T09:10:22;24.10;49.40
831;DHT22;397;50.564;7.272;2023-06-14T09:12:52;24.50;50.30
831;DHT22;397;50.564;7.272;2023-06-14T09:15:19;24.70;50.30
831;DHT22;397;50.564;7.272;2023-06-14T09:17:48;24.80;50.20
831;DHT22;397;50.564;7.272;2023-06-14T09:20:15;24.30;50.40
831;DHT22;397;50.564;7.272;2023-06-14T09:22:46;24.20;50.30
831;DHT22;397;50.564;7.272;2023-06-14T09:25:13;24.30;50.50
831;DHT22;397;50.564;7.272;2023-06-14T09:27:46;23.70;50.90
831;DHT22;397;50.564;7.272;2023-06-14T09:30:14;23.70;51.20
831;DHT22;397;50.564;7.272;2023-06-14T09:32:42;23.70;51.70
831;DHT22;397;50.564;7.272;2023-06-14T09:35:10;23.70;52.00
831;DHT22;397;50.564;7.272;2023-06-14T09:37:37;23.60;51.40
831;DHT22;397;50.564;7.272;2023-06-14T09:40:05;23.70;51.90
831;DHT22;397;50.564;7.272;2023-06-14T09:42:33;23.80;51.10
831;DHT22;397;50.564;7.272;2023-06-14T09:45:03;24.00;50.70
831;DHT22;397;50.564;7.272;2023-06-14T09:47:31;24.10;51.10
831;DHT22;397;50.564;7.272;2023-06-14T09:49:58;24.10;50.50
831;DHT22;397;50.564;7.272;2023-06-14T09:52:27;24.20;49.60
831;DHT22;397;50.564;7.272;2023-06-14T09:54:55;24.00;50.10
831;DHT22;397;50.564;7.272;2023-06-14T09:57:25;24.40;50.30
831;DHT22;397;50.564;7.272;2023-06-14T09:59:57;24.60;50.50
831;DHT22;397;50.564;7.272;2023-06-14T10:02:31;24.70;51.80
831;DHT22;397;50.564;7.272;2023-06-14T10:05:09;24.60;52.00
831;DHT22;397;50.564;7.272;2023-06-14T10:08:04;24.10;51.40
831;DHT22;397;50.564;7.272;2023-06-14T10:10:30;23.80;51.80
831;DHT22;397;50.564;7.272;2023-06-14T10:12:58;24.10;52.50
831;DHT22;397;50.564;7.272;2023-06-14T10:15:34;24.10;50.70
831;DHT22;397;50.564;7.272;2023-06-14T10:18:19;24.10;52.30
831;DHT22;397;50.564;7.272;2023-06-14T10:23:37;24.00;52.30
831;DHT22;397;50.564;7.272;2023-06-14T10:26:05;23.60;52.80
831;DHT22;397;50.564;7.272;2023-06-14T10:28:33;23.60;51.80
831;DHT22;397;50.564;7.272;2023-06-14T10:31:09;24.10;53.60
831;DHT22;397;50.564;7.272;2023-06-14T10:33:48;24.20;52.90
831;DHT22;397;50.564;7.272;2023-06-14T10:36:27;24.20;51.50
831;DHT22;397;50.564;7.272;2023-06-14T10:39:10;24.10;52.40
831;DHT22;397;50.564;7.272;2023-06-14T10:41:39;24.30;53.50
831;DHT22;397;50.564;7.272;2023-06-14T10:44:30;24.20;52.80
831;DHT22;397;50.564;7.272;2023-06-14T10:46:55;24.10;52.90
831;DHT22;397;50.564;7.272;2023-06-14T10:49:43;23.70;53.40
831;DHT22;397;50.564;7.272;2023-06-14T10:52:13;23.80;53.10
831;DHT22;397;50.564;7.272;2023-06-14T10:54:59;23.90;52.70
831;DHT22;397;50.564;7.272;2023-06-14T10:57:28;24.10;53.70
831;DHT22;397;50.564;7.272;2023-06-14T10:59:55;24.10;52.90
831;DHT22;397;50.564;7.272;2023-06-14T11:02:39;24.30;52.30
831;DHT22;397;50.564;7.272;2023-06-14T11:04:56;24.10;53.10
831;DHT22;397;50.564;7.272;2023-06-14T11:07:48;24.10;54.00
831;DHT22;397;50.564;7.272;2023-06-14T11:12:47;24.10;53.90
831;DHT22;397;50.564;7.272;2023-06-14T11:15:15;24.10;52.40
831;DHT22;397;50.564;7.272;2023-06-14T11:17:51;24.00;51.90
831;DHT22;397;50.564;7.272;2023-06-14T11:20:20;23.90;53.60
831;DHT22;397;50.564;7.272;2023-06-14T11:22:49;23.70;53.30
831;DHT22;397;50.564;7.272;2023-06-14T11:25:17;24.00;53.20
831;DHT22;397;50.564;7.272;2023-06-14T11:27:45;23.70;52.90
831;DHT22;397;50.564;7.272;2023-06-14T11:30:13;24.00;53.10
831;DHT22;397;50.564;7.272;2023-06-14T11:32:41;24.10;53.70
831;DHT22;397;50.564;7.272;2023-06-14T11:35:09;23.90;55.00
831;DHT22;397;50.564;7.272;2023-06-14T11:37:37;23.90;53.90
831;DHT22;397;50.564;7.272;2023-06-14T11:40:06;24.20;54.40
831;DHT22;397;50.564;7.272;2023-06-14T11:42:36;24.20;53.70
831;DHT22;397;50.564;7.272;2023-06-14T11:45:07;24.00;52.60
831;DHT22;397;50.564;7.272;2023-06-14T11:47:37;23.70;52.90
831;DHT22;397;50.564;7.272;2023-06-14T11:50:09;23.80;52.20
831;DHT22;397;50.564;7.272;2023-06-14T11:52:37;23.90;53.10
831;DHT22;397;50.564;7.272;2023-06-14T11:55:06;23.90;52.80
831;DHT22;397;50.564;7.272;2023-06-14T11:57:36;24.30;54.10
831;DHT22;397;50.564;7.272;2023-06-14T12:00:06;24.20;52.20
831;DHT22;397;50.564;7.272;2023-06-14T12:02:36;23.90;51.50
831;DHT22;397;50.564;7.272;2023-06-14T12:05:07;23.90;53.50
831;DHT22;397;50.564;7.272;2023-06-14T12:07:37;23.90;53.60
831;DHT22;397;50.564;7.272;2023-06-14T12:10:08;23.50;53.90
831;DHT22;397;50.564;7.272;2023-06-14T12:12:38;23.60;53.70
831;DHT22;397;50.564;7.272;2023-06-14T12:15:08;23.70;54.10
831;DHT22;397;50.564;7.272;2023-06-14T12:17:36;23.60;52.90
831;DHT22;397;50.564;7.272;2023-06-14T12:20:10;23.60;53.90
831;DHT22;397;50.564;7.272;2023-06-14T12:22:52;23.40;52.80
831;DHT22;397;50.564;7.272;2023-06-14T12:25:33;23.30;54.00
831;DHT22;397;50.564;7.272;2023-06-14T12:28:06;23.50;54.50
831;DHT22;397;50.564;7.272;2023-06-14T12:30:35;23.40;53.40
831;DHT22;397;50.564;7.272;2023-06-14T12:33:03;23.60;53.60
831;DHT22;397;50.564;7.272;2023-06-14T12:35:31;23.80;54.70
831;DHT22;397;50.564;7.272;2023-06-14T12:37:59;23.30;53.00
831;DHT22;397;50.564;7.272;2023-06-14T12:40:27;23.40;53.60
831;DHT22;397;50.564;7.272;2023-06-14T12:42:54;23.50;53.10
831;DHT22;397;50.564;7.272;2023-06-14T12:45:22;23.70;53.60
831;DHT22;397;50.564;7.272;2023-06-14T12:47:49;24.00;53.40
831;DHT22;397;50.564;7.272;2023-06-14T12:50:18;24.10;53.10
831;DHT22;397;50.564;7.272;2023-06-14T12:52:45;23.90;53.00
831;DHT22;397;50.564;7.272;2023-06-14T12:55:13;23.50;52.90
831;DHT22;397;50.564;7.272;2023-06-14T12:57:40;23.50;54.50
831;DHT22;397;50.564;7.272;2023-06-14T13:00:08;23.40;53.10
831;DHT22;397;50.564;7.272;2023-06-14T13:02:37;23.50;54.90
831;DHT22;397;50.564;7.272;2023-06-14T13:05:05;23.70;53.70
831;DHT22;397;50.564;7.272;2023-06-14T13:07:32;23.70;53.30
831;DHT22;397;50.564;7.272;2023-06-14T13:10:00;23.80;53.10
831;DHT22;397;50.564;7.272;2023-06-14T13:12:27;23.90;54.20
831;DHT22;397;50.564;7.272;2023-06-14T13:14:55;24.00;53.50
831;DHT22;397;50.564;7.272;2023-06-14T13:17:22;23.70;53.30
831;DHT22;397;50.564;7.272;2023-06-14T13:19:50;23.80;53.90
831;DHT22;397;50.564;7.272;2023-06-14T13:22:17;23.80;54.40
831;DHT22;397;50.564;7.272;2023-06-14T13:24:45;23.90;54.10
831;DHT22;397;50.564;7.272;2023-06-14T13:27:12;23.60;53.80
831;DHT22;397;50.564;7.272;2023-06-14T13:29:40;23.40;54.60
831;DHT22;397;50.564;7.272;2023-06-14T13:32:08;23.40;54.80
831;DHT22;397;50.564;7.272;2023-06-14T13:34:35;23.30;54.40
831;DHT22;397;50.564;7.272;2023-06-14T13:37:03;23.40;55.40
831;DHT22;397;50.564;7.272;2023-06-14T13:39:31;23.50;56.30
831;DHT22;397;50.564;7.272;2023-06-14T13:41:58;23.50;56.30
831;DHT22;397;50.564;7.272;2023-06-14T13:44:26;23.50;56.10
831;DHT22;397;50.564;7.272;2023-06-14T13:46:53;23.20;55.40
831;DHT22;397;50.564;7.272;2023-06-14T13:49:21;23.10;55.60
831;DHT22;397;50.564;7.272;2023-06-14T13:51:48;23.20;55.80
831;DHT22;397;50.564;7.272;2023-06-14T13:54:19;23.20;55.60
831;DHT22;397;50.564;7.272;2023-06-14T13:56:47;23.40;55.90
831;DHT22;397;50.564;7.272;2023-06-14T13:59:14;23.60;55.00
831;DHT22;397;50.564;7.272;2023-06-14T14:01:42;23.80;55.00
831;DHT22;397;50.564;7.272;2023-06-14T14:04:10;24.00;54.80
831;DHT22;397;50.564;7.272;2023-06-14T14:06:37;24.10;53.50
831;DHT22;397;50.564;7.272;2023-06-14T14:09:05;24.20;54.30
831;DHT22;397;50.564;7.272;2023-06-14T14:11:33;23.80;54.30
831;DHT22;397;50.564;7.272;2023-06-14T14:14:00;23.70;54.80
831;DHT22;397;50.564;7.272;2023-06-14T14:16:28;23.50;54.90
831;DHT22;397;50.564;7.272;2023-06-14T14:18:56;23.40;55.50
831;DHT22;397;50.564;7.272;2023-06-14T14:21:24;23.50;55.60
831;DHT22;397;50.564;7.272;2023-06-14T14:23:51;23.60;56.10
831;DHT22;397;50.564;7.272;2023-06-14T14:26:19;23.40;54.80
831;DHT22;397;50.564;7.272;2023-06-14T14:28:47;23.30;54.50
831;DHT22;397;50.564;7.272;2023-06-14T14:31:14;23.10;54.60
831;DHT22;397;50.564;7.272;2023-06-14T14:33:42;23.30;55.00
831;DHT22;397;50.564;7.272;2023-06-14T14:36:09;23.60;55.30
831;DHT22;397;50.564;7.272;2023-06-14T14:38:37;23.70;55.20
831;DHT22;397;50.564;7.272;2023-06-14T14:41:05;23.80;54.70
831;DHT22;397;50.564;7.272;2023-06-14T14:43:32;23.80;54.70
831;DHT22;397;50.564;7.272;2023-06-14T14:45:59;23.70;54.80
831;DHT22;397;50.564;7.272;2023-06-14T14:48:27;23.60;57.00
831;DHT22;397;50.564;7.272;2023-06-14T14:50:55;23.60;57.20
831;DHT22;397;50.564;7.272;2023-06-14T14:53:22;23.50;55.00
831;DHT22;397;50.564;7.272;2023-06-14T14:55:50;23.30;55.90
831;DHT22;397;50.564;7.272;2023-06-14T14:58:17;23.40;56.30
831;DHT22;397;50.564;7.272;2023-06-14T15:00:45;23.50;55.50
831;DHT22;397;50.564;7.272;2023-06-14T15:03:14;23.60;55.50
831;DHT22;397;50.564;7.272;2023-06-14T15:05:41;23.70;54.90
831;DHT22;397;50.564;7.272;2023-06-14T15:08:09;23.80;55.50
831;DHT22;397;50.564;7.272;2023-06-14T15:10:39;23.70;54.60
831;DHT22;397;50.564;7.272;2023-06-14T15:13:08;23.40;54.70
831;DHT22;397;50.564;7.272;2023-06-14T15:15:36;23.50;55.10
831;DHT22;397;50.564;7.272;2023-06-14T15:18:04;23.60;54.80
831;DHT22;397;50.564;7.272;2023-06-14T15:20:31;23.70;54.70
831;DHT22;397;50.564;7.272;2023-06-14T15:22:59;23.80;55.10
831;DHT22;397;50.564;7.272;2023-06-14T15:25:27;23.60;53.60
831;DHT22;397;50.564;7.272;2023-06-14T15:27:55;23.70;55.00
831;DHT22;397;50.564;7.272;2023-06-14T15:30:23;23.80;54.70
831;DHT22;397;50.564;7.272;2023-06-14T15:32:50;23.60;54.40
831;DHT22;397;50.564;7.272;2023-06-14T15:35:18;23.60;54.80
831;DHT22;397;50.564;7.272;2023-06-14T15:37:47;23.50;53.70
831;DHT22;397;50.564;7.272;2023-06-14T15:40:15;23.50;54.60
831;DHT22;397;50.564;7.272;2023-06-14T15:42:43;23.60;54.50
831;DHT22;397;50.564;7.272;2023-06-14T15:45:11;23.70;54.70
831;DHT22;397;50.564;7.272;2023-06-14T15:47:38;23.80;54.50
831;DHT22;397;50.564;7.272;2023-06-14T15:50:06;23.90;54.50
831;DHT22;397;50.564;7.272;2023-06-14T15:52:38;24.00;54.50
831;DHT22;397;50.564;7.272;2023-06-14T15:55:06;24.00;54.80
831;DHT22;397;50.564;7.272;2023-06-14T15:57:33;23.80;53.10
831;DHT22;397;50.564;7.272;2023-06-14T16:00:01;23.70;54.30
831;DHT22;397;50.564;7.272;2023-06-14T16:02:29;23.60;53.60
831;DHT22;397;50.564;7.272;2023-06-14T16:04:56;23.70;54.30
831;DHT22;397;50.564;7.272;2023-06-14T16:07:24;23.90;54.30
831;DHT22;397;50.564;7.272;2023-06-14T16:09:51;23.90;53.40
831;DHT22;397;50.564;7.272;2023-06-14T16:12:19;24.10;54.70
831;DHT22;397;50.564;7.272;2023-06-14T16:14:47;24.10;53.20
831;DHT22;397;50.564;7.272;2023-06-14T16:17:15;24.10;54.40
831;DHT22;397;50.564;7.272;2023-06-14T16:19:42;24.10;53.50
831;DHT22;397;50.564;7.272;2023-06-14T16:22:10;24.00;53.40
831;DHT22;397;50.564;7.272;2023-06-14T16:24:37;23.70;53.40
831;DHT22;397;50.564;7.272;2023-06-14T16:27:05;23.50;52.90
831;DHT22;397;50.564;7.272;2023-06-14T16:29:35;23.50;53.30
831;DHT22;397;50.564;7.272;2023-06-14T16:32:03;23.50;53.50
831;DHT22;397;50.564;7.272;2023-06-14T16:34:31;23.50;53.70
831;DHT22;397;50.564;7.272;2023-06-14T16:36:59;23.50;54.40
831;DHT22;397;50.564;7.272;2023-06-14T16:39:27;23.60;53.70
831;DHT22;397;50.564;7.272;2023-06-14T16:41:55;23.70;54.10
831;DHT22;397;50.564;7.272;2023-06-14T16:44:22;23.80;53.50
831;DHT22;397;50.564;7.272;2023-06-14T16:46:50;24.00;54.20
831;DHT22;397;50.564;7.272;2023-06-14T16:49:18;24.00;53.90
831;DHT22;397;50.564;7.272;2023-06-14T16:51:45;24.00;53.50
831;DHT22;397;50.564;7.272;2023-06-14T16:54:13;24.00;53.70
831;DHT22;397;50.564;7.272;2023-06-14T16:56:41;23.90;53.50